createdAt,value
2019-04-29T00:00:34.308Z,23.10
2019-04-29T00:02:34.267Z,23.70
2019-04-29T00:03:34.251Z,23.50
2019-04-29T00:04:34.225Z,23.20
2019-04-29T00:05:34.206Z,23.50
2019-04-29T00:06:34.185Z,23.60
2019-04-29T00:07:34.176Z,22.90
2019-04-29T00:08:34.146Z,25.40
2019-04-29T00:09:34.132Z,24.00
2019-04-29T00:10:34.108Z,24.50
2019-04-29T00:11:34.086Z,24.10
2019-04-29T00:12:34.073Z,23.50
2019-04-29T00:13:34.047Z,22.70
2019-04-29T00:14:34.028Z,22.70
2019-04-29T00:15:34.006Z,21.90
2019-04-29T00:16:33.986Z,22.50
2019-04-29T00:17:33.977Z,22.60
2019-04-29T00:18:33.944Z,22.20
2019-04-29T00:19:36.213Z,21.70
2019-04-29T00:20:33.916Z,21.30
2019-04-29T00:21:33.887Z,22.40
2019-04-29T00:22:33.871Z,21.00
2019-04-29T00:23:33.844Z,21.00
2019-04-29T00:24:33.823Z,22.00
2019-04-29T00:25:33.804Z,21.20
2019-04-29T00:26:33.788Z,20.90
2019-04-29T00:27:33.768Z,21.00
2019-04-29T00:28:33.749Z,21.50
2019-04-29T00:29:33.729Z,21.50
2019-04-29T00:30:33.926Z,21.70
2019-04-29T00:31:33.687Z,20.90
2019-04-29T00:32:33.674Z,22.10
2019-04-29T00:33:33.647Z,22.40
2019-04-29T00:34:33.627Z,23.00
2019-04-29T00:35:33.609Z,21.90
2019-04-29T00:36:33.588Z,21.60
2019-04-29T00:37:33.564Z,22.40
2019-04-29T00:38:33.550Z,20.80
2019-04-29T00:39:33.531Z,21.40
2019-04-29T00:40:33.506Z,21.30
2019-04-29T00:41:33.486Z,21.10
2019-04-29T00:42:33.475Z,21.50
2019-04-29T00:43:33.455Z,20.50
2019-04-29T00:44:33.426Z,20.30
2019-04-29T00:45:33.414Z,20.70
2019-04-29T00:46:33.386Z,22.30
2019-04-29T00:47:33.368Z,21.80
2019-04-29T00:48:33.349Z,21.20
2019-04-29T00:49:33.327Z,22.80
2019-04-29T00:50:33.306Z,21.10
2019-04-29T00:51:33.288Z,20.80
2019-04-29T00:52:33.278Z,21.80
2019-04-29T00:53:33.246Z,20.90
2019-04-29T00:54:33.226Z,21.40
2019-04-29T00:55:33.211Z,21.60
2019-04-29T00:56:33.188Z,20.50
2019-04-29T00:57:33.166Z,21.30
2019-04-29T00:58:33.148Z,22.00
2019-04-29T00:59:33.130Z,20.70
2019-04-29T01:00:33.109Z,21.70
2019-04-29T01:01:33.093Z,21.50
2019-04-29T01:02:33.066Z,21.80
2019-04-29T01:03:33.048Z,21.60
2019-04-29T01:04:33.027Z,21.40
2019-04-29T01:05:33.014Z,21.90
2019-04-29T01:06:32.987Z,20.50
2019-04-29T01:07:32.968Z,21.10
2019-04-29T01:08:32.950Z,20.90
2019-04-29T01:09:32.926Z,21.40
2019-04-29T01:10:32.907Z,21.30
2019-04-29T01:11:32.896Z,21.10
2019-04-29T01:12:32.867Z,22.10
2019-04-29T01:13:32.849Z,21.30
2019-04-29T01:14:32.834Z,20.80
2019-04-29T01:15:32.821Z,21.70
2019-04-29T01:16:32.794Z,21.10
2019-04-29T01:17:32.773Z,21.40
2019-04-29T01:18:32.752Z,20.60
2019-04-29T01:19:32.767Z,21.00
2019-04-29T01:20:32.705Z,21.30
2019-04-29T01:21:32.688Z,22.30
2019-04-29T01:22:32.667Z,21.20
2019-04-29T01:23:32.656Z,20.60
2019-04-29T01:24:32.624Z,21.30
2019-04-29T01:25:32.611Z,21.60
2019-04-29T01:26:32.582Z,22.10
2019-04-29T01:27:32.565Z,21.60
2019-04-29T01:28:32.544Z,22.30
2019-04-29T01:29:32.527Z,22.50
2019-04-29T01:30:32.502Z,21.20
2019-04-29T01:31:32.485Z,21.00
2019-04-29T01:32:32.471Z,22.20
2019-04-29T01:33:32.444Z,21.10
2019-04-29T01:34:32.436Z,21.10
2019-04-29T01:35:32.402Z,21.60
2019-04-29T01:36:32.384Z,21.90
2019-04-29T01:37:32.361Z,21.20
2019-04-29T01:38:32.344Z,21.90
2019-04-29T01:39:32.334Z,22.70
2019-04-29T01:40:32.306Z,23.30
2019-04-29T01:41:32.279Z,23.10
2019-04-29T01:42:32.265Z,22.60
2019-04-29T01:43:32.246Z,22.00
2019-04-29T01:44:32.221Z,22.30
2019-04-29T01:45:32.199Z,19.40
2019-04-29T01:46:32.186Z,19.80
2019-04-29T01:47:32.161Z,20.50
2019-04-29T01:48:32.141Z,20.00
2019-04-29T01:49:32.120Z,20.20
2019-04-29T01:50:32.098Z,20.20
2019-04-29T01:51:32.090Z,20.20
2019-04-29T01:52:32.064Z,20.20
2019-04-29T01:53:32.037Z,20.00
2019-04-29T01:54:32.020Z,20.60
2019-04-29T01:55:32.008Z,20.50
2019-04-29T01:56:31.986Z,20.10
2019-04-29T01:57:31.960Z,19.80
2019-04-29T01:58:31.939Z,20.30
2019-04-29T01:59:31.917Z,20.10
2019-04-29T02:00:31.898Z,20.90
2019-04-29T02:01:31.878Z,19.90
2019-04-29T02:02:31.857Z,20.50
2019-04-29T02:03:31.846Z,21.00
2019-04-29T02:04:31.823Z,20.50
2019-04-29T02:05:31.798Z,20.10
2019-04-29T02:06:31.785Z,20.70
2019-04-29T02:07:31.757Z,20.90
2019-04-29T02:08:31.737Z,20.60
2019-04-29T02:09:31.715Z,21.10
2019-04-29T02:10:31.696Z,20.70
2019-04-29T02:11:31.679Z,20.90
2019-04-29T02:12:31.657Z,21.80
2019-04-29T02:13:31.637Z,20.30
2019-04-29T02:14:31.615Z,20.80
2019-04-29T02:15:31.593Z,21.20
2019-04-29T02:16:31.570Z,21.70
2019-04-29T02:17:31.550Z,20.60
2019-04-29T02:18:31.536Z,21.50
2019-04-29T02:19:31.514Z,20.30
2019-04-29T02:20:31.492Z,20.40
2019-04-29T02:21:31.475Z,21.60
2019-04-29T02:22:31.452Z,21.10
2019-04-29T02:23:31.429Z,20.40
2019-04-29T02:24:31.413Z,20.90
2019-04-29T02:25:31.388Z,20.90
2019-04-29T02:26:31.370Z,20.30
2019-04-29T02:27:31.349Z,20.90
2019-04-29T02:28:31.327Z,20.90
2019-04-29T02:29:31.307Z,20.70
2019-04-29T02:30:31.304Z,20.50
2019-04-29T02:31:31.267Z,20.70
2019-04-29T02:32:31.249Z,21.10
2019-04-29T02:33:31.231Z,20.90
2019-04-29T02:34:31.205Z,20.50
2019-04-29T02:35:31.186Z,20.80
2019-04-29T02:36:31.173Z,20.50
2019-04-29T02:37:31.147Z,20.90
2019-04-29T02:38:31.124Z,20.10
2019-04-29T02:39:31.107Z,19.30
2019-04-29T02:40:31.082Z,20.30
2019-04-29T02:41:31.100Z,20.10
2019-04-29T02:42:31.040Z,20.60
2019-04-29T02:43:31.022Z,19.60
2019-04-29T02:44:30.999Z,20.10
2019-04-29T02:45:30.980Z,19.50
2019-04-29T02:46:30.959Z,20.00
2019-04-29T02:47:30.938Z,19.50
2019-04-29T02:48:34.487Z,20.30
2019-04-29T02:49:30.898Z,20.10
2019-04-29T02:50:30.878Z,19.90
2019-04-29T02:51:30.859Z,20.40
2019-04-29T02:52:30.834Z,20.90
2019-04-29T02:53:30.812Z,20.00
2019-04-29T02:54:30.792Z,19.50
2019-04-29T02:55:30.773Z,19.30
2019-04-29T02:56:30.753Z,20.30
2019-04-29T02:57:30.745Z,19.50
2019-04-29T02:58:30.713Z,19.80
2019-04-29T02:59:30.692Z,19.50
2019-04-29T03:00:30.675Z,20.00
2019-04-29T03:01:30.651Z,21.00
2019-04-29T03:02:30.632Z,20.40
2019-04-29T03:03:30.607Z,20.40
2019-04-29T03:04:30.593Z,19.70
2019-04-29T03:05:30.566Z,20.50
2019-04-29T03:06:30.557Z,21.60
2019-04-29T03:07:30.528Z,27.40
2019-04-29T03:08:30.506Z,29.40
2019-04-29T03:09:30.485Z,36.50
2019-04-29T03:10:30.465Z,34.50
2019-04-29T03:11:30.447Z,35.60
2019-04-29T03:12:30.428Z,39.70
2019-04-29T03:13:30.404Z,42.80
2019-04-29T03:14:30.401Z,45.20
2019-04-29T03:15:30.361Z,48.70
2019-04-29T03:16:30.343Z,52.90
2019-04-29T03:17:30.319Z,61.70
2019-04-29T03:18:30.297Z,69.90
2019-04-29T03:19:30.278Z,82.30
2019-04-29T03:20:30.258Z,70.80
2019-04-29T03:21:30.246Z,55.90
2019-04-29T03:22:30.225Z,71.80
2019-04-29T03:23:30.200Z,64.80
2019-04-29T03:24:30.178Z,60.30
2019-04-29T03:25:30.153Z,54.10
2019-04-29T03:26:30.141Z,55.20
2019-04-29T03:27:30.113Z,51.90
2019-04-29T03:28:30.091Z,41.80
2019-04-29T03:29:30.115Z,39.10
2019-04-29T03:30:30.079Z,34.50
2019-04-29T03:31:30.033Z,29.90
2019-04-29T03:32:30.069Z,28.00
2019-04-29T03:33:30.005Z,27.00
2019-04-29T03:34:29.988Z,26.10
2019-04-29T03:35:29.947Z,25.10
2019-04-29T03:36:29.927Z,24.10
2019-04-29T03:37:29.908Z,22.90
2019-04-29T03:38:29.888Z,24.10
2019-04-29T03:39:29.868Z,24.60
2019-04-29T03:40:29.908Z,23.70
2019-04-29T03:41:29.825Z,22.70
2019-04-29T03:42:29.803Z,23.00
2019-04-29T03:43:29.791Z,23.10
2019-04-29T03:44:29.762Z,23.90
2019-04-29T03:45:29.745Z,22.20
2019-04-29T03:46:29.725Z,22.20
2019-04-29T03:47:29.701Z,23.50
2019-04-29T03:48:29.711Z,22.40
2019-04-29T03:49:29.699Z,23.20
2019-04-29T03:50:29.649Z,23.10
2019-04-29T03:51:29.627Z,23.70
2019-04-29T03:52:29.604Z,26.20
2019-04-29T03:53:29.582Z,24.40
2019-04-29T03:54:29.564Z,24.80
2019-04-29T03:55:39.132Z,25.20
2019-04-29T03:56:29.514Z,27.80
2019-04-29T03:57:29.506Z,33.50
2019-04-29T03:58:29.481Z,29.20
2019-04-29T03:59:29.457Z,27.70
2019-04-29T04:00:29.647Z,29.40
2019-04-29T04:01:29.635Z,31.80
2019-04-29T04:02:29.407Z,29.00
2019-04-29T04:03:29.379Z,25.70
2019-04-29T04:04:29.355Z,25.90
2019-04-29T04:05:29.330Z,25.80
2019-04-29T04:06:29.317Z,26.30
2019-04-29T04:07:29.290Z,25.40
2019-04-29T04:08:29.271Z,26.60
2019-04-29T04:09:29.259Z,25.50
2019-04-29T04:10:29.227Z,23.80
2019-04-29T04:11:29.234Z,23.90
2019-04-29T04:12:29.243Z,24.40
2019-04-29T04:13:29.163Z,24.90
2019-04-29T04:14:29.141Z,24.40
2019-04-29T04:15:29.142Z,24.30
2019-04-29T04:16:29.129Z,47.00
2019-04-29T04:17:29.083Z,47.20
2019-04-29T04:18:29.065Z,41.30
2019-04-29T04:19:29.044Z,28.30
2019-04-29T04:20:29.030Z,39.40
2019-04-29T04:21:28.999Z,33.70
2019-04-29T04:22:28.989Z,26.60
2019-04-29T04:23:28.963Z,24.80
2019-04-29T04:24:28.938Z,26.70
2019-04-29T04:25:28.918Z,24.80
2019-04-29T04:26:28.896Z,25.30
2019-04-29T04:27:28.879Z,24.80
2019-04-29T04:28:28.859Z,24.70
2019-04-29T04:29:28.882Z,24.20
2019-04-29T04:30:28.821Z,25.50
2019-04-29T04:31:28.800Z,25.10
2019-04-29T04:32:28.774Z,25.30
2019-04-29T04:33:28.765Z,24.90
2019-04-29T04:34:28.734Z,35.80
2019-04-29T04:35:28.725Z,37.10
2019-04-29T04:36:28.692Z,27.10
2019-04-29T04:37:28.683Z,28.30
2019-04-29T04:38:28.651Z,28.70
2019-04-29T04:39:28.631Z,27.50
2019-04-29T04:40:28.609Z,26.80
2019-04-29T04:41:28.583Z,27.20
2019-04-29T04:42:30.060Z,26.40
2019-04-29T04:43:28.548Z,26.30
2019-04-29T04:44:28.530Z,25.10
2019-04-29T04:45:28.505Z,26.20
2019-04-29T04:46:28.484Z,25.40
2019-04-29T04:47:28.465Z,25.70
2019-04-29T04:48:28.444Z,25.50
2019-04-29T04:49:28.428Z,25.10
2019-04-29T04:50:28.403Z,25.70
2019-04-29T04:51:28.395Z,26.10
2019-04-29T04:52:28.386Z,26.80
2019-04-29T04:53:28.344Z,25.00
2019-04-29T04:54:31.290Z,25.40
2019-04-29T04:55:28.299Z,25.50
2019-04-29T04:56:28.286Z,24.70
2019-04-29T04:57:28.264Z,25.50
2019-04-29T04:58:28.239Z,26.20
2019-04-29T04:59:28.219Z,26.40
2019-04-29T05:00:28.210Z,26.10
2019-04-29T05:01:28.184Z,26.20
2019-04-29T05:02:28.155Z,26.30
2019-04-29T05:03:28.139Z,25.00
2019-04-29T05:04:28.114Z,25.90
2019-04-29T05:05:28.117Z,24.30
2019-04-29T05:06:28.076Z,25.20
2019-04-29T05:07:28.053Z,24.10
2019-04-29T05:08:28.038Z,25.40
2019-04-29T05:09:28.018Z,25.40
2019-04-29T05:10:27.992Z,25.00
2019-04-29T05:11:27.973Z,24.70
2019-04-29T05:12:27.952Z,25.20
2019-04-29T05:13:28.776Z,26.60
2019-04-29T05:14:27.913Z,26.30
2019-04-29T05:15:27.890Z,25.00
2019-04-29T05:16:27.881Z,25.60
2019-04-29T05:17:27.851Z,26.30
2019-04-29T05:18:27.833Z,25.60
2019-04-29T05:19:27.823Z,26.00
2019-04-29T05:20:27.793Z,26.20
2019-04-29T05:21:27.772Z,26.40
2019-04-29T05:22:27.757Z,26.20
2019-04-29T05:23:27.729Z,28.00
2019-04-29T05:24:27.709Z,26.30
2019-04-29T05:25:27.689Z,26.00
2019-04-29T05:26:27.669Z,27.10
2019-04-29T05:27:27.653Z,25.60
2019-04-29T05:28:27.629Z,26.80
2019-04-29T05:29:28.769Z,27.50
2019-04-29T05:30:27.597Z,24.50
2019-04-29T05:31:27.581Z,25.00
2019-04-29T05:32:27.553Z,25.90
2019-04-29T05:33:27.537Z,26.30
2019-04-29T05:34:27.513Z,25.30
2019-04-29T05:35:27.490Z,29.70
2019-04-29T05:36:27.474Z,28.80
2019-04-29T05:37:27.448Z,28.20
2019-04-29T05:38:27.432Z,29.20
2019-04-29T05:39:27.408Z,28.80
2019-04-29T05:40:27.393Z,27.80
2019-04-29T05:41:30.204Z,28.20
2019-04-29T05:42:27.350Z,28.20
2019-04-29T05:43:32.020Z,28.70
2019-04-29T05:44:27.311Z,28.50
2019-04-29T05:45:27.290Z,26.80
2019-04-29T05:46:27.273Z,27.30
2019-04-29T05:47:27.256Z,28.50
2019-04-29T05:48:27.640Z,28.90
2019-04-29T05:49:27.213Z,27.90
2019-04-29T05:50:27.194Z,27.80
2019-04-29T05:51:28.443Z,27.80
2019-04-29T05:52:29.964Z,27.50
2019-04-29T05:53:27.138Z,26.50
2019-04-29T05:54:31.567Z,28.40
2019-04-29T05:55:27.150Z,26.50
2019-04-29T05:56:27.082Z,27.40
2019-04-29T05:57:27.122Z,26.10
2019-04-29T05:58:27.042Z,26.90
2019-04-29T05:59:27.021Z,29.40
2019-04-29T06:00:27.001Z,27.90
2019-04-29T06:01:26.991Z,27.30
2019-04-29T06:02:33.258Z,26.80
2019-04-29T06:03:26.955Z,26.50
2019-04-29T06:04:28.632Z,27.10
2019-04-29T06:05:26.906Z,26.80
2019-04-29T06:06:26.888Z,28.20
2019-04-29T06:07:27.052Z,26.00
2019-04-29T06:08:26.850Z,27.00
2019-04-29T06:09:26.829Z,26.90
2019-04-29T06:10:26.811Z,26.80
2019-04-29T06:11:26.793Z,25.70
2019-04-29T06:12:26.769Z,25.00
2019-04-29T06:13:26.748Z,25.40
2019-04-29T06:14:26.731Z,25.60
2019-04-29T06:15:26.722Z,27.00
2019-04-29T06:16:26.695Z,28.10
2019-04-29T06:17:26.675Z,27.40
2019-04-29T06:18:26.654Z,27.40
2019-04-29T06:19:26.639Z,25.60
2019-04-29T06:20:26.617Z,24.70
2019-04-29T06:21:26.599Z,23.60
2019-04-29T06:22:26.587Z,24.10
2019-04-29T06:23:26.562Z,24.50
2019-04-29T06:24:26.543Z,24.60
2019-04-29T06:25:26.532Z,24.90
2019-04-29T06:26:26.512Z,28.70
2019-04-29T06:27:26.495Z,28.50
2019-04-29T06:28:28.155Z,26.90
2019-04-29T06:29:26.452Z,26.70
2019-04-29T06:30:26.434Z,23.60
2019-04-29T06:31:26.414Z,23.80
2019-04-29T06:32:26.513Z,23.00
2019-04-29T06:33:29.213Z,23.30
2019-04-29T06:34:26.360Z,21.10
2019-04-29T06:35:26.344Z,21.20
2019-04-29T06:36:26.324Z,21.40
2019-04-29T06:37:26.305Z,21.50
2019-04-29T06:38:26.298Z,22.10
2019-04-29T06:39:26.272Z,22.20
2019-04-29T06:40:26.252Z,22.30
2019-04-29T06:41:26.236Z,21.20
2019-04-29T06:42:26.222Z,22.70
2019-04-29T06:43:28.925Z,21.50
2019-04-29T06:44:26.182Z,21.90
2019-04-29T06:45:26.173Z,20.00
2019-04-29T06:46:26.145Z,21.30
2019-04-29T06:47:26.130Z,28.00
2019-04-29T06:48:26.110Z,27.30
2019-04-29T06:49:26.098Z,24.60
2019-04-29T06:50:26.087Z,21.90
2019-04-29T06:51:26.060Z,20.20
2019-04-29T06:52:26.045Z,22.30
2019-04-29T06:53:26.024Z,22.10
2019-04-29T06:54:26.006Z,18.80
2019-04-29T06:55:25.988Z,19.20
2019-04-29T06:56:25.971Z,18.00
2019-04-29T06:57:25.954Z,19.20
2019-04-29T06:58:25.934Z,18.60
2019-04-29T06:59:25.929Z,18.90
2019-04-29T07:00:25.903Z,19.10
2019-04-29T07:01:25.890Z,17.40
2019-04-29T07:02:25.867Z,22.40
2019-04-29T07:03:26.719Z,19.40
2019-04-29T07:04:25.836Z,25.40
2019-04-29T07:05:25.817Z,20.10
2019-04-29T07:06:25.800Z,19.00
2019-04-29T07:07:25.786Z,18.70
2019-04-29T07:08:25.769Z,17.70
2019-04-29T07:09:25.749Z,19.00
2019-04-29T07:10:27.003Z,19.20
2019-04-29T07:11:25.717Z,18.90
2019-04-29T07:12:25.701Z,17.10
2019-04-29T07:13:25.692Z,16.80
2019-04-29T07:14:28.343Z,16.50
2019-04-29T07:15:25.651Z,15.20
2019-04-29T07:16:27.212Z,16.20
2019-04-29T07:17:25.622Z,16.40
2019-04-29T07:18:25.611Z,16.60
2019-04-29T07:19:26.567Z,15.40
2019-04-29T07:20:25.571Z,15.20
2019-04-29T07:21:25.562Z,19.90
2019-04-29T07:22:26.077Z,19.80
2019-04-29T07:23:25.523Z,16.10
2019-04-29T07:24:25.510Z,15.20
2019-04-29T07:25:28.704Z,17.60
2019-04-29T07:26:25.480Z,18.80
2019-04-29T07:27:25.465Z,17.90
2019-04-29T07:28:25.450Z,16.20
2019-04-29T07:29:29.938Z,15.60
2019-04-29T07:30:25.420Z,17.30
2019-04-29T07:31:28.322Z,18.60
2019-04-29T07:32:25.392Z,14.20
2019-04-29T07:33:25.377Z,13.50
2019-04-29T07:34:29.010Z,12.50
2019-04-29T07:35:25.365Z,13.60
2019-04-29T07:36:25.340Z,13.70
2019-04-29T07:37:25.332Z,12.80
2019-04-29T07:38:25.320Z,12.80
2019-04-29T07:39:26.822Z,12.60
2019-04-29T07:40:25.298Z,12.80
2019-04-29T07:41:25.284Z,12.80
2019-04-29T07:42:31.915Z,12.00
2019-04-29T07:43:25.259Z,11.70
2019-04-29T07:44:25.241Z,12.30
2019-04-29T07:45:28.229Z,12.90
2019-04-29T07:46:25.221Z,13.10
2019-04-29T07:47:29.521Z,11.90
2019-04-29T07:48:25.202Z,11.80
2019-04-29T07:49:25.190Z,11.10
2019-04-29T07:50:26.754Z,13.20
2019-04-29T07:51:25.178Z,13.50
2019-04-29T07:52:25.173Z,11.20
2019-04-29T07:53:34.328Z,10.20
2019-04-29T07:54:25.153Z,10.10
2019-04-29T07:55:26.029Z,10.90
2019-04-29T07:56:25.143Z,10.40
2019-04-29T07:57:25.133Z,15.40
2019-04-29T07:58:27.303Z,15.50
2019-04-29T07:59:25.124Z,15.40
2019-04-29T08:00:25.119Z,12.10
2019-04-29T08:01:26.400Z,10.90
2019-04-29T08:02:25.112Z,12.60
2019-04-29T08:03:25.104Z,12.60
2019-04-29T08:04:25.104Z,11.20
2019-04-29T08:05:25.097Z,10.60
2019-04-29T08:06:25.097Z,10.10
2019-04-29T08:07:25.086Z,10.30
2019-04-29T08:08:25.085Z,10.20
2019-04-29T08:09:25.081Z,10.00
2019-04-29T08:10:28.634Z,10.50
2019-04-29T08:11:25.117Z,10.10
2019-04-29T08:12:25.071Z,10.60
2019-04-29T08:13:25.066Z,12.70
2019-04-29T08:14:25.064Z,11.00
2019-04-29T08:15:25.063Z,10.50
2019-04-29T08:16:25.061Z,11.30
2019-04-29T08:17:25.060Z,14.90
2019-04-29T08:18:25.051Z,40.90
2019-04-29T08:19:29.409Z,25.00
2019-04-29T08:20:25.046Z,17.70
2019-04-29T08:21:25.043Z,17.00
2019-04-29T08:22:27.674Z,17.60
2019-04-29T08:23:25.038Z,14.80
2019-04-29T08:24:25.037Z,18.10
2019-04-29T08:25:26.082Z,11.20
2019-04-29T08:26:25.030Z,10.90
2019-04-29T08:27:25.025Z,10.60
2019-04-29T08:28:25.023Z,10.90
2019-04-29T08:29:25.025Z,10.90
2019-04-29T08:30:25.018Z,11.30
2019-04-29T08:31:25.029Z,11.10
2019-04-29T08:32:25.013Z,10.50
2019-04-29T08:33:25.011Z,10.50
2019-04-29T08:34:25.008Z,10.40
2019-04-29T08:35:25.023Z,10.80
2019-04-29T08:36:25.006Z,10.80
2019-04-29T08:37:25.094Z,11.30
2019-04-29T08:38:25.018Z,11.40
2019-04-29T08:39:28.890Z,10.10
2019-04-29T08:40:24.997Z,10.90
2019-04-29T08:41:28.853Z,10.50
2019-04-29T08:42:24.997Z,10.60
2019-04-29T08:43:24.989Z,10.90
2019-04-29T08:44:24.990Z,11.10
2019-04-29T08:45:24.991Z,10.40
2019-04-29T08:46:24.997Z,10.80
2019-04-29T08:47:30.426Z,10.20
2019-04-29T08:48:24.988Z,10.20
2019-04-29T08:49:24.983Z,11.60
2019-04-29T08:50:24.981Z,18.10
2019-04-29T08:51:24.984Z,14.00
2019-04-29T08:52:24.979Z,12.70
2019-04-29T08:53:24.974Z,10.10
2019-04-29T08:54:24.971Z,9.00
2019-04-29T08:55:26.697Z,9.80
2019-04-29T08:56:24.967Z,9.30
2019-04-29T08:57:24.966Z,10.60
2019-04-29T08:58:24.959Z,10.90
2019-04-29T08:59:25.829Z,10.90
2019-04-29T09:00:24.956Z,11.50
2019-04-29T09:01:29.168Z,14.10
2019-04-29T09:02:34.569Z,13.60
2019-04-29T09:03:39.384Z,17.20
2019-04-29T09:04:28.521Z,19.40
2019-04-29T09:05:24.946Z,15.20
2019-04-29T09:06:27.845Z,14.70
2019-04-29T09:07:24.931Z,12.80
2019-04-29T09:08:28.894Z,12.20
2019-04-29T09:09:29.199Z,15.00
2019-04-29T09:10:24.917Z,15.80
2019-04-29T09:11:24.914Z,14.60
2019-04-29T09:12:29.012Z,19.10
2019-04-29T09:13:24.901Z,15.20
2019-04-29T09:14:24.896Z,13.20
2019-04-29T09:15:24.895Z,11.90
2019-04-29T09:16:24.883Z,12.40
2019-04-29T09:17:24.879Z,12.00
2019-04-29T09:18:24.878Z,12.50
2019-04-29T09:19:24.866Z,12.70
2019-04-29T09:20:24.861Z,14.20
2019-04-29T09:21:24.845Z,13.90
2019-04-29T09:22:24.850Z,16.00
2019-04-29T09:23:24.831Z,14.90
2019-04-29T09:24:24.824Z,15.40
2019-04-29T09:25:26.109Z,12.90
2019-04-29T09:26:24.807Z,17.90
2019-04-29T09:27:24.805Z,16.10
2019-04-29T09:28:27.958Z,13.70
2019-04-29T09:29:24.780Z,14.50
2019-04-29T09:30:24.770Z,16.30
2019-04-29T09:31:24.766Z,17.90
2019-04-29T09:32:24.755Z,15.50
2019-04-29T09:33:24.747Z,15.30
2019-04-29T09:34:26.429Z,13.50
2019-04-29T09:35:24.723Z,14.10
2019-04-29T09:36:24.708Z,12.70
2019-04-29T09:37:24.705Z,15.20
2019-04-29T09:38:24.688Z,18.70
2019-04-29T09:39:24.680Z,18.30
2019-04-29T09:40:24.671Z,16.20
2019-04-29T09:41:24.665Z,14.30
2019-04-29T09:42:24.645Z,12.90
2019-04-29T09:43:25.861Z,11.80
2019-04-29T09:44:24.650Z,13.30
2019-04-29T09:45:24.644Z,11.70
2019-04-29T09:46:24.603Z,11.30
2019-04-29T09:47:24.596Z,10.70
2019-04-29T09:48:24.587Z,10.20
2019-04-29T09:49:24.575Z,13.40
2019-04-29T09:50:24.571Z,11.20
2019-04-29T09:51:27.810Z,10.00
2019-04-29T09:52:24.543Z,16.80
2019-04-29T09:53:24.540Z,12.20
2019-04-29T09:54:24.524Z,9.80
2019-04-29T09:55:24.512Z,10.70
2019-04-29T09:56:24.520Z,10.00
2019-04-29T09:57:24.491Z,11.00
2019-04-29T09:58:24.485Z,13.00
2019-04-29T09:59:24.477Z,13.10
2019-04-29T10:00:24.463Z,13.30
2019-04-29T10:01:24.452Z,11.40
2019-04-29T10:02:26.518Z,11.10
2019-04-29T10:03:24.426Z,10.80
2019-04-29T10:04:24.415Z,13.60
2019-04-29T10:05:24.406Z,13.10
2019-04-29T10:06:24.391Z,10.90
2019-04-29T10:07:24.392Z,11.40
2019-04-29T10:08:24.378Z,10.00
2019-04-29T10:09:24.393Z,10.90
2019-04-29T10:10:24.346Z,8.70
2019-04-29T10:11:24.335Z,8.70
2019-04-29T10:12:24.332Z,11.00
2019-04-29T10:13:24.310Z,11.20
2019-04-29T10:14:24.300Z,11.10
2019-04-29T10:15:24.297Z,10.60
2019-04-29T10:16:24.276Z,9.50
2019-04-29T10:17:24.270Z,9.30
2019-04-29T10:18:25.066Z,12.50
2019-04-29T10:19:24.238Z,12.20
2019-04-29T10:20:24.228Z,10.60
2019-04-29T10:21:24.222Z,8.80
2019-04-29T10:22:24.203Z,13.10
2019-04-29T10:23:24.192Z,10.70
2019-04-29T10:24:24.180Z,10.80
2019-04-29T10:25:24.168Z,8.70
2019-04-29T10:26:24.155Z,8.40
2019-04-29T10:27:24.145Z,8.30
2019-04-29T10:28:24.138Z,8.30
2019-04-29T10:29:25.844Z,7.90
2019-04-29T10:30:26.827Z,10.10
2019-04-29T10:31:24.093Z,12.40
2019-04-29T10:32:24.084Z,14.80
2019-04-29T10:33:24.106Z,11.80
2019-04-29T10:34:27.057Z,11.50
2019-04-29T10:35:24.044Z,9.20
2019-04-29T10:36:26.194Z,12.00
2019-04-29T10:37:31.487Z,10.70
2019-04-29T10:38:24.006Z,12.90
2019-04-29T10:39:24.241Z,10.90
2019-04-29T10:40:23.987Z,9.00
2019-04-29T10:41:23.970Z,10.40
2019-04-29T10:42:23.962Z,11.20
2019-04-29T10:43:23.945Z,10.50
2019-04-29T10:44:23.932Z,10.60
2019-04-29T10:45:23.924Z,9.70
2019-04-29T10:46:23.907Z,9.20
2019-04-29T10:47:23.897Z,9.60
2019-04-29T10:48:23.885Z,12.40
2019-04-29T10:49:23.871Z,12.30
2019-04-29T10:50:23.962Z,10.80
2019-04-29T10:51:27.353Z,8.00
2019-04-29T10:52:23.838Z,7.90
2019-04-29T10:53:23.824Z,7.60
2019-04-29T10:54:23.810Z,7.30
2019-04-29T10:55:25.509Z,8.10
2019-04-29T10:56:23.787Z,9.80
2019-04-29T10:57:23.774Z,8.40
2019-04-29T10:58:30.182Z,7.70
2019-04-29T10:59:35.359Z,10.00
2019-04-29T11:03:25.066Z,7.80
2019-04-29T11:04:23.691Z,7.30
2019-04-29T11:05:23.681Z,7.80
2019-04-29T11:06:23.672Z,8.10
2019-04-29T11:07:26.470Z,10.00
2019-04-29T11:08:23.644Z,9.50
2019-04-29T11:09:23.635Z,9.20
2019-04-29T11:10:25.353Z,8.40
2019-04-29T11:11:27.079Z,13.80
2019-04-29T11:12:23.596Z,10.50
2019-04-29T11:13:24.815Z,7.70
2019-04-29T11:14:24.841Z,9.20
2019-04-29T11:15:23.558Z,11.20
2019-04-29T11:16:27.544Z,9.40
2019-04-29T11:17:23.533Z,10.50
2019-04-29T11:18:25.075Z,10.60
2019-04-29T11:19:23.573Z,7.70
2019-04-29T11:20:23.506Z,7.30
2019-04-29T11:21:24.990Z,8.30
2019-04-29T11:22:23.475Z,7.60
2019-04-29T11:23:23.462Z,7.40
2019-04-29T11:24:23.450Z,7.20
2019-04-29T11:25:23.441Z,8.80
2019-04-29T11:26:23.428Z,8.50
2019-04-29T11:27:23.415Z,8.10
2019-04-29T11:28:23.405Z,7.70
2019-04-29T11:29:27.307Z,9.30
2019-04-29T11:30:23.382Z,7.50
2019-04-29T11:34:23.341Z,8.70
2019-04-29T11:35:24.496Z,11.60
2019-04-29T11:36:23.311Z,9.10
2019-04-29T11:37:24.086Z,8.30
2019-04-29T11:38:23.289Z,9.60
2019-04-29T11:39:23.273Z,11.70
2019-04-29T11:40:26.018Z,12.90
2019-04-29T11:41:23.256Z,10.50
2019-04-29T11:42:23.242Z,11.00
2019-04-29T11:43:23.228Z,7.90
2019-04-29T11:44:26.543Z,7.10
2019-04-29T11:45:23.237Z,6.90
2019-04-29T11:46:23.194Z,6.80
2019-04-29T11:47:25.161Z,6.30
2019-04-29T11:48:23.172Z,6.80
2019-04-29T11:49:23.162Z,6.70
2019-04-29T11:50:23.148Z,10.70
2019-04-29T11:51:23.147Z,9.70
2019-04-29T11:52:23.763Z,7.70
2019-04-29T11:53:23.113Z,7.60
2019-04-29T11:54:23.112Z,6.90
2019-04-29T11:55:23.091Z,6.50
2019-04-29T11:56:23.081Z,6.70
2019-04-29T11:57:23.067Z,7.90
2019-04-29T11:58:23.055Z,8.00
2019-04-29T11:59:23.142Z,8.70
2019-04-29T12:00:23.044Z,9.10
2019-04-29T12:01:37.492Z,8.00
2019-04-29T12:02:42.256Z,9.40
2019-04-29T12:03:23.014Z,9.60
2019-04-29T12:04:22.987Z,9.20
2019-04-29T12:05:23.000Z,7.30
2019-04-29T12:06:22.968Z,6.30
2019-04-29T12:07:22.966Z,5.70
2019-04-29T12:08:22.946Z,5.80
2019-04-29T12:09:25.389Z,5.00
2019-04-29T12:10:22.922Z,6.80
2019-04-29T12:11:22.910Z,10.50
2019-04-29T12:12:22.897Z,8.90
2019-04-29T12:13:27.175Z,7.80
2019-04-29T12:14:22.874Z,5.90
2019-04-29T12:15:22.861Z,5.50
2019-04-29T12:16:24.658Z,6.80
2019-04-29T12:17:22.838Z,5.70
2019-04-29T12:18:22.826Z,7.30
2019-04-29T12:19:22.820Z,5.80
2019-04-29T12:20:22.802Z,6.80
2019-04-29T12:21:25.445Z,9.30
2019-04-29T12:22:30.219Z,8.60
2019-04-29T12:23:22.767Z,6.50
2019-04-29T12:24:22.763Z,6.30
2019-04-29T12:25:22.928Z,6.10
2019-04-29T12:26:22.733Z,6.30
2019-04-29T12:27:22.818Z,8.10
2019-04-29T12:28:22.715Z,6.40
2019-04-29T12:29:22.698Z,5.90
2019-04-29T12:30:22.699Z,6.20
2019-04-29T12:31:22.676Z,6.60
2019-04-29T12:32:25.079Z,5.80
2019-04-29T12:33:22.653Z,5.80
2019-04-29T12:34:22.644Z,6.40
2019-04-29T12:35:23.442Z,7.10
2019-04-29T12:36:22.626Z,6.00
2019-04-29T12:37:25.581Z,7.10
2019-04-29T12:38:22.712Z,6.50
2019-04-29T12:39:42.349Z,6.30
2019-04-29T12:40:22.576Z,7.80
2019-04-29T12:41:29.868Z,6.70
2019-04-29T12:42:22.574Z,8.00
2019-04-29T12:43:22.560Z,7.30
2019-04-29T12:44:34.608Z,6.30
2019-04-29T12:45:22.519Z,7.20
2019-04-29T12:46:22.509Z,8.70
2019-04-29T12:47:26.646Z,7.40
2019-04-29T12:48:24.794Z,6.80
2019-04-29T12:49:22.517Z,7.20
2019-04-29T12:50:23.153Z,7.70
2019-04-29T12:51:22.451Z,9.10
2019-04-29T12:52:22.450Z,8.90
2019-04-29T12:53:22.429Z,7.60
2019-04-29T12:54:22.417Z,8.00
2019-04-29T12:55:43.002Z,7.70
2019-04-29T12:56:22.393Z,7.20
2019-04-29T12:57:23.681Z,10.10
2019-04-29T12:58:24.214Z,10.70
2019-04-29T12:59:22.388Z,8.80
2019-04-29T13:00:22.353Z,7.70
2019-04-29T13:01:22.336Z,6.40
2019-04-29T13:02:24.518Z,6.60
2019-04-29T13:03:22.318Z,6.90